Milwaukee, Wisconsin
Traffic Map
Current Weather Conditions
Milwaukee, Wisconsin
Overcast Haze
Overcast
19°
Feels Like: 19°
Wind Chill: 19° Ceiling: 200
Heat Index: 19° Visibility: 3mi
Dew Point: 19° Wind: 0mph
Humidity: 100% Direction: ° ()
Pressure: 30.06in Gusts: 0mph
Raw Report DataKMKE 050727Z 00000KT 3SM BR OVC002 19/19 A3006 RMK AO2 SFC VIS 4 T01890189
Traffic Incident Summary
Active as of:
Severity:
Category:
InformationThere was an issue retrieving the traffic information for this location. Please try a different location or try again shortly.
Advertisements
Track Severe Weather on mobile